sensor_id;sensor_type;location;lat;lon;timestamp;temperature;humidity
34640;DHT22;22600;48.186;11.526;2023-03-31T00:00:08;22.10;50.80
34640;DHT22;22600;48.186;11.526;2023-03-31T00:02:36;22.20;50.80
34640;DHT22;22600;48.186;11.526;2023-03-31T00:05:02;22.20;50.80
34640;DHT22;22600;48.186;11.526;2023-03-31T00:07:27;22.10;50.80
34640;DHT22;22600;48.186;11.526;2023-03-31T00:09:53;23.20;51.90
34640;DHT22;22600;48.186;11.526;2023-03-31T00:12:22;22.10;50.80
34640;DHT22;22600;48.186;11.526;2023-03-31T00:14:47;22.10;50.80
34640;DHT22;22600;48.186;11.526;2023-03-31T00:17:12;22.20;50.90
34640;DHT22;22600;48.186;11.526;2023-03-31T00:19:41;22.10;50.80
34640;DHT22;22600;48.186;11.526;2023-03-31T00:22:06;22.20;50.90
34640;DHT22;22600;48.186;11.526;2023-03-31T00:24:32;22.20;50.90
34640;DHT22;22600;48.186;11.526;2023-03-31T00:27:01;22.20;50.90
34640;DHT22;22600;48.186;11.526;2023-03-31T00:29:27;22.20;50.90
34640;DHT22;22600;48.186;11.526;2023-03-31T00:31:53;22.10;50.80
34640;DHT22;22600;48.186;11.526;2023-03-31T00:34:19;22.10;50.90
34640;DHT22;22600;48.186;11.526;2023-03-31T00:36:45;22.10;50.90
34640;DHT22;22600;48.186;11.526;2023-03-31T00:39:14;22.10;50.90
34640;DHT22;22600;48.186;11.526;2023-03-31T00:41:40;22.10;50.90
34640;DHT22;22600;48.186;11.526;2023-03-31T00:49:20;22.20;51.00
34640;DHT22;22600;48.186;11.526;2023-03-31T00:51:47;22.20;50.90
34640;DHT22;22600;48.186;11.526;2023-03-31T00:54:14;22.20;50.90
34640;DHT22;22600;48.186;11.526;2023-03-31T00:56:40;22.10;50.90
34640;DHT22;22600;48.186;11.526;2023-03-31T00:59:07;22.10;50.90
34640;DHT22;22600;48.186;11.526;2023-03-31T01:01:35;22.20;51.00
34640;DHT22;22600;48.186;11.526;2023-03-31T01:04:01;22.00;50.90
34640;DHT22;22600;48.186;11.526;2023-03-31T01:06:27;22.10;50.90
34640;DHT22;22600;48.186;11.526;2023-03-31T01:08:55;22.10;50.90
34640;DHT22;22600;48.186;11.526;2023-03-31T01:11:21;22.10;51.00
34640;DHT22;22600;48.186;11.526;2023-03-31T01:13:47;22.10;50.90
34640;DHT22;22600;48.186;11.526;2023-03-31T01:16:16;22.20;51.00
34640;DHT22;22600;48.186;11.526;2023-03-31T01:18:42;22.20;51.00
34640;DHT22;22600;48.186;11.526;2023-03-31T01:28:58;22.10;51.00
34640;DHT22;22600;48.186;11.526;2023-03-31T01:39:49;22.10;51.00
34640;DHT22;22600;48.186;11.526;2023-03-31T01:42:19;22.20;51.10
34640;DHT22;22600;48.186;11.526;2023-03-31T01:44:51;22.10;51.10
34640;DHT22;22600;48.186;11.526;2023-03-31T01:47:22;22.10;51.00
34640;DHT22;22600;48.186;11.526;2023-03-31T01:52:22;22.10;51.10
34640;DHT22;22600;48.186;11.526;2023-03-31T01:55:11;22.10;51.10
34640;DHT22;22600;48.186;11.526;2023-03-31T01:57:40;22.10;51.10
34640;DHT22;22600;48.186;11.526;2023-03-31T02:00:10;22.10;51.00
34640;DHT22;22600;48.186;11.526;2023-03-31T02:02:44;22.10;51.10
34640;DHT22;22600;48.186;11.526;2023-03-31T02:05:18;22.20;51.10
34640;DHT22;22600;48.186;11.526;2023-03-31T02:07:49;22.10;51.10
34640;DHT22;22600;48.186;11.526;2023-03-31T02:10:17;22.10;51.10
34640;DHT22;22600;48.186;11.526;2023-03-31T02:12:43;22.20;51.10
34640;DHT22;22600;48.186;11.526;2023-03-31T02:15:10;22.10;51.10
34640;DHT22;22600;48.186;11.526;2023-03-31T02:17:38;22.20;51.20
34640;DHT22;22600;48.186;11.526;2023-03-31T02:20:08;22.10;51.10
34640;DHT22;22600;48.186;11.526;2023-03-31T02:22:36;22.10;51.10
34640;DHT22;22600;48.186;11.526;2023-03-31T02:25:02;22.10;51.10
34640;DHT22;22600;48.186;11.526;2023-03-31T02:27:30;22.10;51.20
34640;DHT22;22600;48.186;11.526;2023-03-31T02:29:57;22.10;51.10
34640;DHT22;22600;48.186;11.526;2023-03-31T02:32:28;22.20;51.20
34640;DHT22;22600;48.186;11.526;2023-03-31T02:34:56;22.10;51.20
34640;DHT22;22600;48.186;11.526;2023-03-31T02:37:22;22.10;51.10
34640;DHT22;22600;48.186;11.526;2023-03-31T02:39:48;22.20;51.20
34640;DHT22;22600;48.186;11.526;2023-03-31T02:42:15;22.10;51.20
34640;DHT22;22600;48.186;11.526;2023-03-31T02:44:40;22.10;51.10
34640;DHT22;22600;48.186;11.526;2023-03-31T02:47:07;22.10;51.20
34640;DHT22;22600;48.186;11.526;2023-03-31T02:49:34;22.10;51.20
34640;DHT22;22600;48.186;11.526;2023-03-31T03:04:36;22.10;51.20
34640;DHT22;22600;48.186;11.526;2023-03-31T03:07:09;22.10;51.20
34640;DHT22;22600;48.186;11.526;2023-03-31T03:09:42;22.30;51.30
34640;DHT22;22600;48.186;11.526;2023-03-31T03:12:24;22.40;51.40
34640;DHT22;22600;48.186;11.526;2023-03-31T03:14:51;22.10;51.20
34640;DHT22;22600;48.186;11.526;2023-03-31T03:19:50;22.10;51.20
34640;DHT22;22600;48.186;11.526;2023-03-31T03:22:17;22.10;51.20
34640;DHT22;22600;48.186;11.526;2023-03-31T03:24:43;22.00;51.20
34640;DHT22;22600;48.186;11.526;2023-03-31T03:27:08;22.10;51.30
34640;DHT22;22600;48.186;11.526;2023-03-31T03:29:34;22.10;51.20
34640;DHT22;22600;48.186;11.526;2023-03-31T03:31:59;22.10;51.30
34640;DHT22;22600;48.186;11.526;2023-03-31T03:34:25;22.10;51.30
34640;DHT22;22600;48.186;11.526;2023-03-31T03:36:51;22.10;51.30
34640;DHT22;22600;48.186;11.526;2023-03-31T03:39:16;22.10;51.30
34640;DHT22;22600;48.186;11.526;2023-03-31T03:41:42;22.10;51.30
34640;DHT22;22600;48.186;11.526;2023-03-31T03:44:07;22.10;51.30
34640;DHT22;22600;48.186;11.526;2023-03-31T03:46:33;22.10;51.40
34640;DHT22;22600;48.186;11.526;2023-03-31T03:48:58;22.20;51.40
34640;DHT22;22600;48.186;11.526;2023-03-31T03:51:24;22.10;51.30
34640;DHT22;22600;48.186;11.526;2023-03-31T03:53:50;22.10;51.40
34640;DHT22;22600;48.186;11.526;2023-03-31T03:56:15;22.20;51.40
34640;DHT22;22600;48.186;11.526;2023-03-31T03:58:40;22.10;51.40
34640;DHT22;22600;48.186;11.526;2023-03-31T04:01:06;22.10;51.40
34640;DHT22;22600;48.186;11.526;2023-03-31T04:03:31;22.10;51.40
34640;DHT22;22600;48.186;11.526;2023-03-31T04:05:57;22.10;51.40
34640;DHT22;22600;48.186;11.526;2023-03-31T04:08:22;22.10;51.40
34640;DHT22;22600;48.186;11.526;2023-03-31T04:10:48;22.10;51.40
34640;DHT22;22600;48.186;11.526;2023-03-31T04:13:14;22.10;51.40
34640;DHT22;22600;48.186;11.526;2023-03-31T04:15:40;22.10;51.40
34640;DHT22;22600;48.186;11.526;2023-03-31T04:18:06;22.20;51.40
34640;DHT22;22600;48.186;11.526;2023-03-31T04:20:37;22.10;51.40
34640;DHT22;22600;48.186;11.526;2023-03-31T04:23:03;22.10;51.40
34640;DHT22;22600;48.186;11.526;2023-03-31T04:25:33;22.20;51.40
34640;DHT22;22600;48.186;11.526;2023-03-31T04:28:03;22.10;51.40
34640;DHT22;22600;48.186;11.526;2023-03-31T04:30:31;22.10;51.40
34640;DHT22;22600;48.186;11.526;2023-03-31T04:32:57;22.10;51.40
34640;DHT22;22600;48.186;11.526;2023-03-31T04:35:24;22.10;51.40
34640;DHT22;22600;48.186;11.526;2023-03-31T04:37:50;22.10;51.40
34640;DHT22;22600;48.186;11.526;2023-03-31T04:40:16;22.10;51.40
34640;DHT22;22600;48.186;11.526;2023-03-31T04:42:43;22.10;51.40
34640;DHT22;22600;48.186;11.526;2023-03-31T04:45:09;22.10;51.40
34640;DHT22;22600;48.186;11.526;2023-03-31T04:47:35;22.10;51.40
34640;DHT22;22600;48.186;11.526;2023-03-31T04:50:00;22.10;51.40
34640;DHT22;22600;48.186;11.526;2023-03-31T04:52:25;22.00;51.40
34640;DHT22;22600;48.186;11.526;2023-03-31T04:54:51;22.10;51.40
34640;DHT22;22600;48.186;11.526;2023-03-31T04:57:16;22.10;51.40
34640;DHT22;22600;48.186;11.526;2023-03-31T04:59:42;22.10;51.40
34640;DHT22;22600;48.186;11.526;2023-03-31T05:02:07;22.10;51.40
34640;DHT22;22600;48.186;11.526;2023-03-31T05:04:33;22.10;51.40
34640;DHT22;22600;48.186;11.526;2023-03-31T05:06:58;22.10;51.40
34640;DHT22;22600;48.186;11.526;2023-03-31T05:09:24;22.10;51.40
34640;DHT22;22600;48.186;11.526;2023-03-31T05:11:50;22.10;51.40
34640;DHT22;22600;48.186;11.526;2023-03-31T05:14:15;22.10;51.40
34640;DHT22;22600;48.186;11.526;2023-03-31T05:16:41;22.10;51.40
34640;DHT22;22600;48.186;11.526;2023-03-31T05:19:07;22.10;51.40
34640;DHT22;22600;48.186;11.526;2023-03-31T05:21:32;22.20;51.40
34640;DHT22;22600;48.186;11.526;2023-03-31T05:23:58;22.00;51.40
34640;DHT22;22600;48.186;11.526;2023-03-31T05:26:24;22.10;51.40
34640;DHT22;22600;48.186;11.526;2023-03-31T05:28:53;22.10;51.40
34640;DHT22;22600;48.186;11.526;2023-03-31T05:31:18;22.10;51.40
34640;DHT22;22600;48.186;11.526;2023-03-31T05:33:44;22.30;51.60
34640;DHT22;22600;48.186;11.526;2023-03-31T05:36:11;22.10;51.40
34640;DHT22;22600;48.186;11.526;2023-03-31T05:38:37;22.10;51.40
34640;DHT22;22600;48.186;11.526;2023-03-31T05:41:02;22.10;51.30
34640;DHT22;22600;48.186;11.526;2023-03-31T05:43:28;22.10;51.20
34640;DHT22;22600;48.186;11.526;2023-03-31T05:45:53;22.10;51.20
34640;DHT22;22600;48.186;11.526;2023-03-31T05:48:19;22.10;51.20
34640;DHT22;22600;48.186;11.526;2023-03-31T05:50:45;22.10;51.20
34640;DHT22;22600;48.186;11.526;2023-03-31T05:53:11;22.10;51.20
34640;DHT22;22600;48.186;11.526;2023-03-31T05:55:36;22.10;51.10
34640;DHT22;22600;48.186;11.526;2023-03-31T05:58:02;22.30;51.20
34640;DHT22;22600;48.186;11.526;2023-03-31T06:00:27;22.10;51.10
34640;DHT22;22600;48.186;11.526;2023-03-31T06:02:53;22.10;51.20
34640;DHT22;22600;48.186;11.526;2023-03-31T06:05:18;22.10;51.20
34640;DHT22;22600;48.186;11.526;2023-03-31T06:07:44;22.10;51.30
34640;DHT22;22600;48.186;11.526;2023-03-31T06:10:10;22.10;51.30
34640;DHT22;22600;48.186;11.526;2023-03-31T06:12:35;22.10;51.40
34640;DHT22;22600;48.186;11.526;2023-03-31T06:15:01;22.10;51.40
34640;DHT22;22600;48.186;11.526;2023-03-31T06:17:27;22.10;51.40
34640;DHT22;22600;48.186;11.526;2023-03-31T06:19:52;22.10;51.40
34640;DHT22;22600;48.186;11.526;2023-03-31T06:22:18;22.10;51.40
34640;DHT22;22600;48.186;11.526;2023-03-31T06:24:43;22.10;51.40
34640;DHT22;22600;48.186;11.526;2023-03-31T06:27:08;24.50;52.60
34640;DHT22;22600;48.186;11.526;2023-03-31T06:29:34;22.20;51.60
34640;DHT22;22600;48.186;11.526;2023-03-31T06:31:59;22.10;51.60
34640;DHT22;22600;48.186;11.526;2023-03-31T06:34:25;22.10;51.70
34640;DHT22;22600;48.186;11.526;2023-03-31T06:36:51;22.10;51.90
34640;DHT22;22600;48.186;11.526;2023-03-31T06:39:17;22.10;51.90
34640;DHT22;22600;48.186;11.526;2023-03-31T06:41:43;22.10;52.00
34640;DHT22;22600;48.186;11.526;2023-03-31T06:44:08;22.20;52.10
34640;DHT22;22600;48.186;11.526;2023-03-31T06:46:34;22.20;52.20
34640;DHT22;22600;48.186;11.526;2023-03-31T06:48:59;22.20;52.20
34640;DHT22;22600;48.186;11.526;2023-03-31T06:51:25;22.20;52.30
34640;DHT22;22600;48.186;11.526;2023-03-31T06:53:50;22.20;52.30
34640;DHT22;22600;48.186;11.526;2023-03-31T06:56:16;22.20;52.40
34640;DHT22;22600;48.186;11.526;2023-03-31T06:58:41;22.20;52.40
34640;DHT22;22600;48.186;11.526;2023-03-31T07:01:07;22.20;52.50
34640;DHT22;22600;48.186;11.526;2023-03-31T07:03:32;22.20;52.50
34640;DHT22;22600;48.186;11.526;2023-03-31T07:05:58;22.30;52.70
34640;DHT22;22600;48.186;11.526;2023-03-31T07:08:24;22.30;52.70
34640;DHT22;22600;48.186;11.526;2023-03-31T07:10:53;22.30;52.80
34640;DHT22;22600;48.186;11.526;2023-03-31T07:13:18;22.30;52.90
34640;DHT22;22600;48.186;11.526;2023-03-31T07:15:46;22.30;52.90
34640;DHT22;22600;48.186;11.526;2023-03-31T07:18:11;22.30;52.90
34640;DHT22;22600;48.186;11.526;2023-03-31T07:20:40;22.30;53.00
34640;DHT22;22600;48.186;11.526;2023-03-31T07:23:06;22.30;53.10
34640;DHT22;22600;48.186;11.526;2023-03-31T07:25:33;22.30;53.10
34640;DHT22;22600;48.186;11.526;2023-03-31T07:27:58;22.30;53.20
34640;DHT22;22600;48.186;11.526;2023-03-31T07:30:24;22.30;53.20
34640;DHT22;22600;48.186;11.526;2023-03-31T07:32:50;22.30;53.30
34640;DHT22;22600;48.186;11.526;2023-03-31T07:35:15;22.40;53.40
34640;DHT22;22600;48.186;11.526;2023-03-31T07:37:42;22.40;53.60
34640;DHT22;22600;48.186;11.526;2023-03-31T07:40:09;22.40;53.80
34640;DHT22;22600;48.186;11.526;2023-03-31T07:42:35;22.40;53.90
34640;DHT22;22600;48.186;11.526;2023-03-31T07:45:00;22.40;54.00
34640;DHT22;22600;48.186;11.526;2023-03-31T07:47:26;22.40;54.00
34640;DHT22;22600;48.186;11.526;2023-03-31T07:49:52;22.40;53.80
34640;DHT22;22600;48.186;11.526;2023-03-31T07:52:17;22.40;53.80
34640;DHT22;22600;48.186;11.526;2023-03-31T07:54:46;22.40;53.70
34640;DHT22;22600;48.186;11.526;2023-03-31T07:57:12;22.40;53.70
34640;DHT22;22600;48.186;11.526;2023-03-31T07:59:38;22.40;53.60
34640;DHT22;22600;48.186;11.526;2023-03-31T08:02:03;22.40;53.60
34640;DHT22;22600;48.186;11.526;2023-03-31T08:04:29;22.40;53.60
34640;DHT22;22600;48.186;11.526;2023-03-31T08:06:54;22.40;53.60
34640;DHT22;22600;48.186;11.526;2023-03-31T08:09:20;22.40;53.60
34640;DHT22;22600;48.186;11.526;2023-03-31T08:11:47;22.40;53.50
34640;DHT22;22600;48.186;11.526;2023-03-31T08:14:13;22.40;53.50
34640;DHT22;22600;48.186;11.526;2023-03-31T08:16:38;22.40;53.50
34640;DHT22;22600;48.186;11.526;2023-03-31T08:19:04;22.40;53.50
34640;DHT22;22600;48.186;11.526;2023-03-31T08:21:29;22.40;53.50
34640;DHT22;22600;48.186;11.526;2023-03-31T08:23:55;22.40;53.40
34640;DHT22;22600;48.186;11.526;2023-03-31T08:26:21;22.40;53.40
34640;DHT22;22600;48.186;11.526;2023-03-31T08:28:48;22.40;53.40
34640;DHT22;22600;48.186;11.526;2023-03-31T08:31:15;22.40;53.30
34640;DHT22;22600;48.186;11.526;2023-03-31T08:33:40;22.40;53.30
34640;DHT22;22600;48.186;11.526;2023-03-31T08:36:06;22.40;53.30
34640;DHT22;22600;48.186;11.526;2023-03-31T08:38:35;22.40;53.30
34640;DHT22;22600;48.186;11.526;2023-03-31T08:41:02;22.40;53.30
34640;DHT22;22600;48.186;11.526;2023-03-31T08:43:29;22.40;53.30
34640;DHT22;22600;48.186;11.526;2023-03-31T08:45:55;22.40;53.30
34640;DHT22;22600;48.186;11.526;2023-03-31T08:50:47;22.40;52.80
34640;DHT22;22600;48.186;11.526;2023-03-31T08:53:19;22.40;53.30
34640;DHT22;22600;48.186;11.526;2023-03-31T08:55:49;22.40;53.30
34640;DHT22;22600;48.186;11.526;2023-03-31T09:03:35;22.40;53.30
34640;DHT22;22600;48.186;11.526;2023-03-31T09:06:04;22.30;53.20
34640;DHT22;22600;48.186;11.526;2023-03-31T09:08:35;22.40;53.80
34640;DHT22;22600;48.186;11.526;2023-03-31T09:16:37;22.30;53.20
34640;DHT22;22600;48.186;11.526;2023-03-31T09:19:10;22.30;53.20
34640;DHT22;22600;48.186;11.526;2023-03-31T09:21:39;22.30;53.20
34640;DHT22;22600;48.186;11.526;2023-03-31T09:26:39;22.30;53.20
34640;DHT22;22600;48.186;11.526;2023-03-31T09:29:06;22.40;53.20
34640;DHT22;22600;48.186;11.526;2023-03-31T09:31:35;22.30;53.20
34640;DHT22;22600;48.186;11.526;2023-03-31T09:34:04;22.30;53.10
34640;DHT22;22600;48.186;11.526;2023-03-31T09:36:34;22.30;53.10
34640;DHT22;22600;48.186;11.526;2023-03-31T09:38:59;22.30;53.00
34640;DHT22;22600;48.186;11.526;2023-03-31T09:41:25;22.40;53.70
34640;DHT22;22600;48.186;11.526;2023-03-31T09:43:50;22.30;53.00
34640;DHT22;22600;48.186;11.526;2023-03-31T09:46:18;22.40;53.00
34640;DHT22;22600;48.186;11.526;2023-03-31T09:48:47;23.20;53.40
34640;DHT22;22600;48.186;11.526;2023-03-31T09:51:16;22.40;53.00
34640;DHT22;22600;48.186;11.526;2023-03-31T09:56:34;22.40;53.00
34640;DHT22;22600;48.186;11.526;2023-03-31T09:59:16;22.40;53.00
34640;DHT22;22600;48.186;11.526;2023-03-31T10:01:43;22.40;53.00
34640;DHT22;22600;48.186;11.526;2023-03-31T10:04:13;22.60;53.10
34640;DHT22;22600;48.186;11.526;2023-03-31T10:06:41;22.40;53.00
34640;DHT22;22600;48.186;11.526;2023-03-31T10:09:06;22.40;52.90
34640;DHT22;22600;48.186;11.526;2023-03-31T10:11:34;22.40;52.90
34640;DHT22;22600;48.186;11.526;2023-03-31T10:14:05;22.40;52.90
34640;DHT22;22600;48.186;11.526;2023-03-31T10:16:47;22.40;52.90
34640;DHT22;22600;48.186;11.526;2023-03-31T10:19:17;22.40;52.90
34640;DHT22;22600;48.186;11.526;2023-03-31T10:21:44;22.40;52.90
34640;DHT22;22600;48.186;11.526;2023-03-31T10:24:10;22.40;52.90
34640;DHT22;22600;48.186;11.526;2023-03-31T10:26:36;22.40;52.90
34640;DHT22;22600;48.186;11.526;2023-03-31T10:29:03;22.40;52.90
34640;DHT22;22600;48.186;11.526;2023-03-31T10:31:34;22.40;52.90
34640;DHT22;22600;48.186;11.526;2023-03-31T10:34:06;22.40;52.90
34640;DHT22;22600;48.186;11.526;2023-03-31T10:36:33;22.40;52.80
34640;DHT22;22600;48.186;11.526;2023-03-31T10:38:59;22.40;52.90
34640;DHT22;22600;48.186;11.526;2023-03-31T10:41:29;22.40;52.90
34640;DHT22;22600;48.186;11.526;2023-03-31T10:43:55;22.70;53.10
34640;DHT22;22600;48.186;11.526;2023-03-31T10:47:15;22.40;52.90
34640;DHT22;22600;48.186;11.526;2023-03-31T10:49:14;22.60;53.00
34640;DHT22;22600;48.186;11.526;2023-03-31T10:51:47;22.40;52.90
34640;DHT22;22600;48.186;11.526;2023-03-31T10:54:12;22.40;52.90
34640;DHT22;22600;48.186;11.526;2023-03-31T10:56:42;22.40;53.00
34640;DHT22;22600;48.186;11.526;2023-03-31T11:01:42;22.50;53.40
34640;DHT22;22600;48.186;11.526;2023-03-31T11:09:41;22.50;53.80
34640;DHT22;22600;48.186;11.526;2023-03-31T11:12:20;22.40;53.70
34640;DHT22;22600;48.186;11.526;2023-03-31T11:29:58;22.50;53.70
34640;DHT22;22600;48.186;11.526;2023-03-31T11:35:18;22.50;54.30
34640;DHT22;22600;48.186;11.526;2023-03-31T11:37:51;22.50;54.60
34640;DHT22;22600;48.186;11.526;2023-03-31T11:42:58;22.50;55.10
34640;DHT22;22600;48.186;11.526;2023-03-31T11:45:27;22.50;55.40
34640;DHT22;22600;48.186;11.526;2023-03-31T11:47:54;22.50;56.60
34640;DHT22;22600;48.186;11.526;2023-03-31T11:50:24;22.60;56.70
34640;DHT22;22600;48.186;11.526;2023-03-31T11:52:56;22.50;58.00
34640;DHT22;22600;48.186;11.526;2023-03-31T11:55:23;22.50;58.20
34640;DHT22;22600;48.186;11.526;2023-03-31T12:00:31;22.40;58.20
34640;DHT22;22600;48.186;11.526;2023-03-31T12:05:36;22.50;58.70
34640;DHT22;22600;48.186;11.526;2023-03-31T12:10:33;22.60;59.00
34640;DHT22;22600;48.186;11.526;2023-03-31T12:15:45;22.60;59.00
34640;DHT22;22600;48.186;11.526;2023-03-31T12:18:12;22.60;58.70
34640;DHT22;22600;48.186;11.526;2023-03-31T12:20:40;22.60;58.80
34640;DHT22;22600;48.186;11.526;2023-03-31T12:23:10;22.50;58.60
34640;DHT22;22600;48.186;11.526;2023-03-31T12:28:17;22.60;58.40
34640;DHT22;22600;48.186;11.526;2023-03-31T12:30:43;22.60;58.30
34640;DHT22;22600;48.186;11.526;2023-03-31T12:40:37;22.60;58.40
34640;DHT22;22600;48.186;11.526;2023-03-31T12:46:20;22.60;57.80
34640;DHT22;22600;48.186;11.526;2023-03-31T12:51:46;22.60;56.80
34640;DHT22;22600;48.186;11.526;2023-03-31T12:54:19;22.60;56.50
34640;DHT22;22600;48.186;11.526;2023-03-31T12:59:28;22.60;56.10
34640;DHT22;22600;48.186;11.526;2023-03-31T13:04:34;22.60;56.40
34640;DHT22;22600;48.186;11.526;2023-03-31T13:07:01;22.60;56.60
34640;DHT22;22600;48.186;11.526;2023-03-31T13:11:55;22.60;57.00
34640;DHT22;22600;48.186;11.526;2023-03-31T13:14:26;22.60;57.10
34640;DHT22;22600;48.186;11.526;2023-03-31T13:17:08;22.50;57.20
34640;DHT22;22600;48.186;11.526;2023-03-31T13:19:35;22.50;57.50
34640;DHT22;22600;48.186;11.526;2023-03-31T13:22:04;22.50;57.60
34640;DHT22;22600;48.186;11.526;2023-03-31T13:24:30;22.50;58.40
34640;DHT22;22600;48.186;11.526;2023-03-31T13:27:45;22.60;57.90
34640;DHT22;22600;48.186;11.526;2023-03-31T13:29:42;23.40;58.40
34640;DHT22;22600;48.186;11.526;2023-03-31T13:34:41;22.50;58.10
34640;DHT22;22600;48.186;11.526;2023-03-31T13:47:24;22.50;58.40
34640;DHT22;22600;48.186;11.526;2023-03-31T13:52:30;22.50;58.60
34640;DHT22;22600;48.186;11.526;2023-03-31T13:55:11;22.50;58.10
34640;DHT22;22600;48.186;11.526;2023-03-31T14:00:25;22.50;58.10
34640;DHT22;22600;48.186;11.526;2023-03-31T14:06:22;22.50;58.00
34640;DHT22;22600;48.186;11.526;2023-03-31T14:08:50;22.50;58.00
34640;DHT22;22600;48.186;11.526;2023-03-31T14:11:17;22.50;57.90
34640;DHT22;22600;48.186;11.526;2023-03-31T14:13:57;22.40;57.70
34640;DHT22;22600;48.186;11.526;2023-03-31T14:16:23;22.50;57.90
34640;DHT22;22600;48.186;11.526;2023-03-31T14:18:49;22.50;58.30
34640;DHT22;22600;48.186;11.526;2023-03-31T14:21:28;22.50;58.40
34640;DHT22;22600;48.186;11.526;2023-03-31T14:24:07;22.50;58.50
34640;DHT22;22600;48.186;11.526;2023-03-31T14:29:09;22.50;58.40
34640;DHT22;22600;48.186;11.526;2023-03-31T14:31:40;22.50;58.50
34640;DHT22;22600;48.186;11.526;2023-03-31T14:39:08;22.50;58.50
34640;DHT22;22600;48.186;11.526;2023-03-31T14:41:35;22.50;58.50
34640;DHT22;22600;48.186;11.526;2023-03-31T14:44:06;22.50;58.60
34640;DHT22;22600;48.186;11.526;2023-03-31T14:46:35;22.50;58.90
34640;DHT22;22600;48.186;11.526;2023-03-31T14:49:17;22.50;59.40
34640;DHT22;22600;48.186;11.526;2023-03-31T14:51:44;22.50;59.40
34640;DHT22;22600;48.186;11.526;2023-03-31T14:54:17;22.50;59.10
34640;DHT22;22600;48.186;11.526;2023-03-31T14:56:42;22.50;58.90
34640;DHT22;22600;48.186;11.526;2023-03-31T14:59:09;22.50;58.80
34640;DHT22;22600;48.186;11.526;2023-03-31T15:01:34;22.50;58.80
34640;DHT22;22600;48.186;11.526;2023-03-31T15:04:08;22.50;58.80
34640;DHT22;22600;48.186;11.526;2023-03-31T15:06:35;22.50;58.80
34640;DHT22;22600;48.186;11.526;2023-03-31T15:09:04;22.50;58.70
34640;DHT22;22600;48.186;11.526;2023-03-31T15:11:30;22.50;58.80
34640;DHT22;22600;48.186;11.526;2023-03-31T15:13:56;22.50;58.70
34640;DHT22;22600;48.186;11.526;2023-03-31T15:19:00;22.50;58.70
34640;DHT22;22600;48.186;11.526;2023-03-31T15:21:29;22.50;58.70
34640;DHT22;22600;48.186;11.526;2023-03-31T15:23:55;22.50;58.90
34640;DHT22;22600;48.186;11.526;2023-03-31T15:26:23;22.50;58.90
34640;DHT22;22600;48.186;11.526;2023-03-31T15:28:51;22.60;59.00
34640;DHT22;22600;48.186;11.526;2023-03-31T15:31:19;26.40;61.40
34640;DHT22;22600;48.186;11.526;2023-03-31T15:33:45;22.60;59.10
34640;DHT22;22600;48.186;11.526;2023-03-31T15:36:11;22.60;59.10
34640;DHT22;22600;48.186;11.526;2023-03-31T15:38:37;22.50;59.30
34640;DHT22;22600;48.186;11.526;2023-03-31T15:41:02;22.50;59.10
34640;DHT22;22600;48.186;11.526;2023-03-31T15:43:32;22.50;59.00
34640;DHT22;22600;48.186;11.526;2023-03-31T15:46:10;22.60;59.00
34640;DHT22;22600;48.186;11.526;2023-03-31T15:48:48;22.50;59.10
34640;DHT22;22600;48.186;11.526;2023-03-31T15:53:49;22.50;59.00
34640;DHT22;22600;48.186;11.526;2023-03-31T15:58:57;23.50;59.40
34640;DHT22;22600;48.186;11.526;2023-03-31T16:01:26;22.50;58.80
34640;DHT22;22600;48.186;11.526;2023-03-31T16:03:55;22.50;58.50
34640;DHT22;22600;48.186;11.526;2023-03-31T16:09:09;22.50;57.80
34640;DHT22;22600;48.186;11.526;2023-03-31T16:11:46;22.50;57.70
34640;DHT22;22600;48.186;11.526;2023-03-31T16:14:15;22.50;57.60
34640;DHT22;22600;48.186;11.526;2023-03-31T16:16:44;22.50;57.70
34640;DHT22;22600;48.186;11.526;2023-03-31T16:19:10;22.50;57.50
34640;DHT22;22600;48.186;11.526;2023-03-31T16:21:40;22.40;57.30
34640;DHT22;22600;48.186;11.526;2023-03-31T16:24:06;22.50;57.40
34640;DHT22;22600;48.186;11.526;2023-03-31T16:26:32;22.40;57.30
34640;DHT22;22600;48.186;11.526;2023-03-31T16:28:57;22.50;57.50
34640;DHT22;22600;48.186;11.526;2023-03-31T16:33:55;22.50;57.60
34640;DHT22;22600;48.186;11.526;2023-03-31T16:36:21;22.60;57.80
34640;DHT22;22600;48.186;11.526;2023-03-31T16:38:46;22.50;57.70
34640;DHT22;22600;48.186;11.526;2023-03-31T16:41:12;22.50;57.70
34640;DHT22;22600;48.186;11.526;2023-03-31T16:43:39;22.40;57.60
34640;DHT22;22600;48.186;11.526;2023-03-31T16:46:05;22.60;57.80
34640;DHT22;22600;48.186;11.526;2023-03-31T16:48:31;22.50;57.70
34640;DHT22;22600;48.186;11.526;2023-03-31T16:50:58;22.50;57.80
34640;DHT22;22600;48.186;11.526;2023-03-31T16:53:26;22.70;57.90
34640;DHT22;22600;48.186;11.526;2023-03-31T16:55:55;22.50;57.80
34640;DHT22;22600;48.186;11.526;2023-03-31T16:58:21;22.40;57.70
34640;DHT22;22600;48.186;11.526;2023-03-31T17:00:48;22.50;57.80
34640;DHT22;22600;48.186;11.526;2023-03-31T17:03:13;22.50;57.90
34640;DHT22;22600;48.186;11.526;2023-03-31T17:05:47;22.50;57.90
34640;DHT22;22600;48.186;11.526;2023-03-31T17:08:14;22.50;57.90
34640;DHT22;22600;48.186;11.526;2023-03-31T17:10:40;22.40;57.90
34640;DHT22;22600;48.186;11.526;2023-03-31T17:13:06;22.50;58.00
34640;DHT22;22600;48.186;11.526;2023-03-31T17:15:31;22.40;57.90
34640;DHT22;22600;48.186;11.526;2023-03-31T17:17:59;22.50;58.00
34640;DHT22;22600;48.186;11.526;2023-03-31T17:20:24;19.30;56.40
34640;DHT22;22600;48.186;11.526;2023-03-31T17:22:50;22.40;57.90
34640;DHT22;22600;48.186;11.526;2023-03-31T17:25:16;22.40;57.80
34640;DHT22;22600;48.186;11.526;2023-03-31T17:27:43;22.50;58.00
34640;DHT22;22600;48.186;11.526;2023-03-31T17:30:08;22.40;58.00
34640;DHT22;22600;48.186;11.526;2023-03-31T17:32:34;22.40;58.00
34640;DHT22;22600;48.186;11.526;2023-03-31T17:35:00;22.60;58.10
34640;DHT22;22600;48.186;11.526;2023-03-31T17:37:26;22.40;58.00
34640;DHT22;22600;48.186;11.526;2023-03-31T17:39:52;22.40;58.00
34640;DHT22;22600;48.186;11.526;2023-03-31T17:42:17;22.40;58.00
34640;DHT22;22600;48.186;11.526;2023-03-31T17:44:44;22.80;58.30
34640;DHT22;22600;48.186;11.526;2023-03-31T17:47:12;22.40;58.00
34640;DHT22;22600;48.186;11.526;2023-03-31T17:49:37;22.50;58.00
34640;DHT22;22600;48.186;11.526;2023-03-31T17:52:03;22.40;58.00
34640;DHT22;22600;48.186;11.526;2023-03-31T17:54:29;22.40;57.90
34640;DHT22;22600;48.186;11.526;2023-03-31T17:56:54;22.40;58.00
34640;DHT22;22600;48.186;11.526;2023-03-31T17:59:20;22.40;58.00